createdAt,value
2023-05-25T00:02:05.041Z,70.82
2023-05-25T00:04:34.676Z,71.11
2023-05-25T00:07:03.127Z,71.73
2023-05-25T00:09:31.729Z,71.98
2023-05-25T00:12:00.987Z,71.42
2023-05-25T00:14:31.322Z,72.10
2023-05-25T00:17:04.343Z,72.14
2023-05-25T00:19:34.663Z,72.73
2023-05-25T00:22:03.355Z,72.30
2023-05-25T00:24:32.615Z,71.95
2023-05-25T00:27:01.511Z,71.92
2023-05-25T00:29:29.916Z,73.36
2023-05-25T00:31:58.430Z,72.27
2023-05-25T00:34:27.750Z,72.91
2023-05-25T00:36:56.389Z,73.13
2023-05-25T00:39:25.116Z,73.59
2023-05-25T00:41:53.372Z,74.21
2023-05-25T00:44:22.474Z,73.51
2023-05-25T00:46:52.770Z,73.74
2023-05-25T00:49:23.506Z,73.76
2023-05-25T00:51:54.277Z,74.18
2023-05-25T00:54:22.706Z,74.32
2023-05-25T00:56:53.817Z,74.46
2023-05-25T00:59:35.818Z,74.73
2023-05-25T01:02:07.020Z,74.65
2023-05-25T01:04:37.157Z,75.65
2023-05-25T01:07:10.110Z,75.48
2023-05-25T01:09:40.857Z,75.48
2023-05-25T01:12:11.904Z,75.49
2023-05-25T01:14:40.875Z,75.37
2023-05-25T01:17:10.790Z,76.29
2023-05-25T01:19:41.556Z,75.87
2023-05-25T01:22:20.347Z,76.02
2023-05-25T01:24:52.853Z,75.99
2023-05-25T01:27:28.519Z,75.33
2023-05-25T01:29:58.835Z,75.69
2023-05-25T01:32:29.322Z,75.98
2023-05-25T01:35:00.807Z,76.63
2023-05-25T01:37:32.008Z,76.17
2023-05-25T01:40:00.195Z,76.01
2023-05-25T01:42:28.159Z,76.77
2023-05-25T01:44:56.939Z,76.80
2023-05-25T01:47:30.326Z,76.86
2023-05-25T01:50:05.090Z,77.17
2023-05-25T01:52:39.405Z,77.15
2023-05-25T01:55:12.007Z,77.05
2023-05-25T01:57:44.277Z,77.59
2023-05-25T02:00:15.259Z,77.40
2023-05-25T02:02:45.508Z,77.17
2023-05-25T02:05:13.869Z,77.91
2023-05-25T02:07:43.994Z,78.34
2023-05-25T02:10:12.408Z,78.32
2023-05-25T02:12:40.782Z,78.41
2023-05-25T02:15:11.266Z,77.57
2023-05-25T02:17:39.568Z,78.08
2023-05-25T02:20:11.714Z,78.85
2023-05-25T02:22:39.890Z,79.36
2023-05-25T02:25:10.332Z,78.66
2023-05-25T02:27:39.075Z,79.38
2023-05-25T02:30:09.388Z,78.75
2023-05-25T02:32:37.689Z,77.80
2023-05-25T02:35:06.988Z,78.37
2023-05-25T02:37:35.327Z,77.99
2023-05-25T02:40:04.040Z,78.62
2023-05-25T02:42:34.031Z,78.41
2023-05-25T02:45:02.393Z,78.83
2023-05-25T02:47:31.264Z,78.38
2023-05-25T02:49:59.475Z,77.92
2023-05-25T02:52:28.423Z,78.44
2023-05-25T02:54:56.602Z,78.76
2023-05-25T02:57:25.294Z,79.43
2023-05-25T02:59:55.213Z,79.17
2023-05-25T03:02:26.043Z,78.87
2023-05-25T03:04:54.797Z,79.88
2023-05-25T03:07:23.238Z,79.06
2023-05-25T03:09:52.333Z,79.22
2023-05-25T03:12:20.672Z,78.95
2023-05-25T03:14:49.803Z,78.59
2023-05-25T03:17:20.306Z,78.41
2023-05-25T03:19:48.837Z,79.17
2023-05-25T03:22:17.260Z,79.01
2023-05-25T03:24:47.221Z,78.61
2023-05-25T03:27:15.657Z,78.41
2023-05-25T03:29:43.886Z,78.12
2023-05-25T03:32:12.439Z,79.13
2023-05-25T03:34:42.056Z,79.04
2023-05-25T03:37:10.238Z,78.09
2023-05-25T03:39:38.986Z,77.70
2023-05-25T03:42:07.788Z,76.58
2023-05-25T03:44:36.366Z,75.87
2023-05-25T03:47:05.249Z,76.11
2023-05-25T03:49:34.134Z,76.26
2023-05-25T03:52:03.859Z,75.55
2023-05-25T03:54:32.530Z,73.76
2023-05-25T03:57:00.816Z,72.47
2023-05-25T03:59:29.132Z,69.22
2023-05-25T04:01:58.229Z,68.69
2023-05-25T04:04:28.358Z,66.54
2023-05-25T04:06:57.145Z,65.92
2023-05-25T04:09:27.106Z,64.38
2023-05-25T04:11:56.029Z,62.35
2023-05-25T04:14:24.490Z,63.36
2023-05-25T04:16:54.002Z,60.83
2023-05-25T04:19:22.868Z,59.01
2023-05-25T04:21:51.243Z,55.74
2023-05-25T04:24:20.104Z,53.56
2023-05-25T04:26:52.178Z,54.81
2023-05-25T04:29:21.415Z,50.80
2023-05-25T04:31:49.813Z,47.51
2023-05-25T04:34:22.219Z,48.38
2023-05-25T04:36:50.895Z,46.28
2023-05-25T04:39:19.233Z,46.51
2023-05-25T04:41:50.480Z,46.13
2023-05-25T04:44:20.187Z,45.94
2023-05-25T04:46:50.292Z,40.53
2023-05-25T04:49:20.584Z,42.23
2023-05-25T04:51:49.927Z,37.06
2023-05-25T04:54:18.416Z,37.96
2023-05-25T04:56:47.498Z,38.92
2023-05-25T04:59:21.109Z,37.76
2023-05-25T05:01:50.955Z,37.96
2023-05-25T05:04:20.129Z,37.11
2023-05-25T05:06:49.003Z,38.52
2023-05-25T05:09:18.605Z,40.04
2023-05-25T05:11:47.349Z,35.80
2023-05-25T05:14:17.430Z,36.37
2023-05-25T05:16:49.543Z,32.48
2023-05-25T05:19:19.809Z,33.89
2023-05-25T05:21:49.000Z,31.12
2023-05-25T05:24:18.313Z,32.69
2023-05-25T05:26:57.350Z,31.01
2023-05-25T05:29:29.817Z,30.53
2023-05-25T05:31:58.560Z,30.18
2023-05-25T05:34:27.357Z,29.92
2023-05-25T05:36:58.818Z,29.87
2023-05-25T05:39:28.845Z,28.21
2023-05-25T05:41:58.560Z,27.22
2023-05-25T05:44:29.512Z,27.02
2023-05-25T05:47:01.563Z,27.58
2023-05-25T05:49:31.388Z,25.72
2023-05-25T05:52:01.102Z,27.73
2023-05-25T05:54:29.838Z,27.54
2023-05-25T05:56:58.681Z,28.24
2023-05-25T05:59:29.496Z,27.37
2023-05-25T06:01:57.936Z,26.19
2023-05-25T06:04:29.182Z,23.34
2023-05-25T06:07:00.078Z,26.77
2023-05-25T06:09:28.449Z,26.14
2023-05-25T06:11:56.876Z,25.02
2023-05-25T06:14:28.128Z,24.24
2023-05-25T06:16:58.930Z,25.75
2023-05-25T06:19:28.391Z,24.35
2023-05-25T06:21:57.145Z,25.57
2023-05-25T06:24:26.085Z,26.67
2023-05-25T06:26:55.326Z,25.03
2023-05-25T06:29:25.616Z,22.51
2023-05-25T06:31:55.246Z,22.98
2023-05-25T06:34:26.196Z,25.67
2023-05-25T06:36:55.520Z,25.84
2023-05-25T06:39:24.565Z,24.15
2023-05-25T06:41:54.449Z,26.11
2023-05-25T06:44:24.041Z,23.63
2023-05-25T06:46:53.065Z,23.39
2023-05-25T06:49:22.083Z,22.00
2023-05-25T06:51:53.216Z,22.90
2023-05-25T06:54:24.409Z,22.04
2023-05-25T06:56:54.118Z,22.14
2023-05-25T06:59:23.452Z,21.23
2023-05-25T07:01:53.135Z,22.05
2023-05-25T07:04:23.276Z,21.81
2023-05-25T07:06:53.866Z,20.66
2023-05-25T07:09:23.364Z,19.45
2023-05-25T07:11:52.333Z,20.67
2023-05-25T07:14:21.089Z,20.43
2023-05-25T07:16:53.048Z,18.79
2023-05-25T07:19:22.082Z,19.08
2023-05-25T07:21:51.244Z,18.84
2023-05-25T07:24:21.977Z,18.40
2023-05-25T07:26:50.393Z,18.90
2023-05-25T07:29:19.362Z,19.70
2023-05-25T07:31:48.948Z,20.70
2023-05-25T07:34:18.568Z,19.89
2023-05-25T07:36:50.521Z,18.29
2023-05-25T07:39:21.996Z,18.76
2023-05-25T07:41:51.184Z,21.39
2023-05-25T07:44:21.096Z,18.86
2023-05-25T07:46:50.955Z,18.99
2023-05-25T07:49:32.354Z,21.14
2023-05-25T07:52:11.298Z,20.07
2023-05-25T07:55:07.627Z,19.31
2023-05-25T07:57:43.215Z,17.47
2023-05-25T08:00:21.619Z,18.87
2023-05-25T08:03:12.471Z,19.44
2023-05-25T08:05:42.040Z,18.62
2023-05-25T08:08:11.070Z,17.94
2023-05-25T08:10:41.360Z,16.44
2023-05-25T08:13:23.878Z,17.20
2023-05-25T08:16:03.781Z,16.86
2023-05-25T08:18:32.890Z,16.06
2023-05-25T08:21:01.230Z,16.69
2023-05-25T08:23:29.683Z,16.04
2023-05-25T08:26:01.349Z,16.35
2023-05-25T08:28:29.832Z,17.46
2023-05-25T08:30:58.870Z,18.86
2023-05-25T08:33:28.000Z,17.95
2023-05-25T08:35:57.172Z,18.82
2023-05-25T08:38:26.680Z,17.06
2023-05-25T08:41:06.828Z,18.60
2023-05-25T08:43:36.452Z,16.51
2023-05-25T08:46:07.689Z,17.23
2023-05-25T08:48:42.382Z,15.83
2023-05-25T08:51:15.006Z,16.10
2023-05-25T08:53:47.876Z,19.45
2023-05-25T08:56:20.698Z,18.05
2023-05-25T08:58:55.794Z,19.43
2023-05-25T09:01:26.660Z,17.89
2023-05-25T09:03:57.811Z,18.73
2023-05-25T09:06:28.609Z,17.57
2023-05-25T09:08:57.419Z,18.02
2023-05-25T09:11:38.867Z,18.87
2023-05-25T09:14:09.217Z,20.79
2023-05-25T09:16:40.091Z,23.16
2023-05-25T09:19:09.245Z,21.74
2023-05-25T09:21:39.044Z,19.85
2023-05-25T09:24:08.671Z,20.10
2023-05-25T09:26:39.831Z,19.74
2023-05-25T09:29:08.794Z,19.12
2023-05-25T09:31:38.919Z,21.31
2023-05-25T09:34:14.586Z,21.78
2023-05-25T09:36:43.635Z,20.50
2023-05-25T09:39:13.280Z,20.20
2023-05-25T09:41:45.147Z,20.31
2023-05-25T09:44:15.685Z,21.74
2023-05-25T09:46:45.584Z,21.19
2023-05-25T09:49:14.400Z,21.51
2023-05-25T09:51:43.578Z,22.49
2023-05-25T09:54:13.598Z,22.82
2023-05-25T09:56:45.441Z,23.39
2023-05-25T09:59:14.766Z,20.67
2023-05-25T10:01:44.757Z,20.78
2023-05-25T10:04:18.125Z,22.06
2023-05-25T10:06:51.353Z,23.59
2023-05-25T10:09:21.935Z,21.58
2023-05-25T10:11:55.211Z,22.32
2023-05-25T10:14:29.301Z,21.33
2023-05-25T10:17:01.791Z,19.22
2023-05-25T10:19:35.309Z,20.87
2023-05-25T10:22:10.907Z,22.46
2023-05-25T10:24:46.196Z,23.74
2023-05-25T10:27:27.912Z,25.30
2023-05-25T10:29:59.502Z,22.00
2023-05-25T10:32:31.797Z,22.48
2023-05-25T10:35:03.880Z,21.01
2023-05-25T10:37:34.710Z,21.68
2023-05-25T10:40:04.499Z,21.86
2023-05-25T10:42:37.310Z,22.78
2023-05-25T10:45:08.156Z,22.24
2023-05-25T10:47:38.932Z,23.13
2023-05-25T10:50:20.130Z,25.40
2023-05-25T10:53:00.065Z,22.38
2023-05-25T10:55:32.727Z,22.96
2023-05-25T10:58:15.257Z,22.98
2023-05-25T11:00:45.625Z,22.02
2023-05-25T11:03:14.645Z,23.08
2023-05-25T11:05:44.156Z,23.74
2023-05-25T11:08:18.030Z,22.90
2023-05-25T11:10:54.993Z,24.44
2023-05-25T11:13:41.558Z,24.19
2023-05-25T11:16:23.002Z,24.42
2023-05-25T11:18:54.923Z,25.18
2023-05-25T11:21:42.796Z,24.28
2023-05-25T11:24:20.347Z,25.32
2023-05-25T11:26:58.485Z,25.50
2023-05-25T11:29:33.790Z,25.47
2023-05-25T11:32:03.124Z,24.97
2023-05-25T11:34:34.226Z,25.63
2023-05-25T11:37:04.211Z,25.65
2023-05-25T11:39:33.123Z,25.54
2023-05-25T11:42:05.997Z,27.67
2023-05-25T11:44:39.963Z,25.83
2023-05-25T11:47:14.293Z,26.42
2023-05-25T11:49:46.252Z,26.68
2023-05-25T11:52:16.773Z,26.30
2023-05-25T11:54:46.099Z,26.54
2023-05-25T11:57:19.171Z,27.31
2023-05-25T11:59:54.889Z,27.56
2023-05-25T12:02:25.446Z,26.67
2023-05-25T12:04:58.707Z,26.38
2023-05-25T12:07:28.964Z,26.43
2023-05-25T12:10:10.947Z,29.17
2023-05-25T12:12:43.629Z,27.40
2023-05-25T12:15:17.205Z,27.17
2023-05-25T12:17:49.585Z,27.78
2023-05-25T12:20:19.965Z,28.95
2023-05-25T12:22:49.358Z,28.76
2023-05-25T12:25:22.222Z,29.26
2023-05-25T12:27:51.469Z,29.17
2023-05-25T12:30:30.729Z,29.99
2023-05-25T12:33:04.531Z,29.63
2023-05-25T12:35:48.311Z,30.83
2023-05-25T12:38:18.942Z,30.16
2023-05-25T12:40:48.181Z,29.51
2023-05-25T12:43:18.107Z,29.02
2023-05-25T12:45:48.802Z,28.79
2023-05-25T12:48:19.901Z,28.70
2023-05-25T12:51:02.227Z,30.62
2023-05-25T12:53:31.919Z,30.64
2023-05-25T12:56:03.981Z,30.92
2023-05-25T12:58:33.477Z,30.41
2023-05-25T13:01:04.260Z,30.38
2023-05-25T13:03:33.934Z,30.75
2023-05-25T13:06:03.859Z,30.56
2023-05-25T13:08:32.867Z,31.26
2023-05-25T13:11:04.532Z,30.93
2023-05-25T13:13:34.320Z,30.78
2023-05-25T13:16:05.954Z,30.76
2023-05-25T13:18:35.416Z,30.89
2023-05-25T13:21:06.470Z,31.95
2023-05-25T13:23:36.412Z,30.86
2023-05-25T13:26:05.201Z,32.34
2023-05-25T13:28:34.464Z,32.28
2023-05-25T13:31:04.519Z,33.45
2023-05-25T13:33:32.929Z,33.81
2023-05-25T13:36:08.670Z,34.18
2023-05-25T13:38:38.366Z,34.65
2023-05-25T13:41:07.269Z,34.14
2023-05-25T13:43:36.795Z,33.74
2023-05-25T13:48:36.303Z,35.71
2023-05-25T13:51:05.688Z,34.32
2023-05-25T13:53:34.297Z,35.06
2023-05-25T13:56:03.096Z,34.30
2023-05-25T13:58:33.767Z,34.31
2023-05-25T14:01:03.031Z,34.76
2023-05-25T14:03:34.501Z,35.59
2023-05-25T14:06:03.733Z,35.08
2023-05-25T14:08:33.166Z,35.69
2023-05-25T14:11:04.397Z,34.97
2023-05-25T14:13:33.724Z,35.89
2023-05-25T14:16:03.593Z,36.90
2023-05-25T14:18:35.569Z,36.98
2023-05-25T14:21:04.858Z,36.70
2023-05-25T14:23:34.265Z,36.48
2023-05-25T14:26:03.774Z,36.92
2023-05-25T14:28:32.457Z,36.05
2023-05-25T14:31:02.039Z,36.80
2023-05-25T14:33:30.964Z,36.94
2023-05-25T14:36:01.694Z,37.34
2023-05-25T14:38:30.602Z,37.83
2023-05-25T14:40:59.243Z,38.15
2023-05-25T14:43:28.337Z,37.76
2023-05-25T14:45:57.109Z,37.65
2023-05-25T14:48:26.301Z,37.79
2023-05-25T14:50:55.447Z,37.05
2023-05-25T14:53:25.513Z,37.27
2023-05-25T14:55:54.449Z,37.88
2023-05-25T14:58:23.746Z,38.23
2023-05-25T15:00:52.370Z,38.26
2023-05-25T15:03:21.324Z,37.99
2023-05-25T15:05:50.516Z,38.22
2023-05-25T15:08:19.041Z,38.40
2023-05-25T15:10:49.712Z,37.32
2023-05-25T15:13:18.863Z,37.44
2023-05-25T15:15:47.687Z,37.41
2023-05-25T15:18:16.684Z,38.41
2023-05-25T15:20:45.251Z,37.47
2023-05-25T15:23:13.956Z,37.90
2023-05-25T15:25:43.012Z,38.02
2023-05-25T15:28:13.573Z,37.81
2023-05-25T15:30:43.020Z,37.46
2023-05-25T15:33:11.549Z,37.11
2023-05-25T15:35:39.846Z,37.59
2023-05-25T15:38:08.871Z,37.40
2023-05-25T15:40:38.072Z,37.66
2023-05-25T15:43:07.000Z,38.31
2023-05-25T15:45:37.649Z,37.72
2023-05-25T15:48:09.534Z,37.14
2023-05-25T15:50:40.263Z,36.64
2023-05-25T15:53:08.980Z,36.56
2023-05-25T15:55:37.698Z,36.49
2023-05-25T15:58:06.781Z,35.38
2023-05-25T16:00:37.050Z,35.60
2023-05-25T16:03:06.159Z,36.02
2023-05-25T16:05:35.142Z,36.49
2023-05-25T16:08:06.316Z,36.00
2023-05-25T16:10:34.890Z,35.95
2023-05-25T16:13:04.158Z,36.36
2023-05-25T16:15:33.426Z,35.83
2023-05-25T16:18:03.539Z,35.29
2023-05-25T16:20:32.240Z,35.04
2023-05-25T16:23:00.844Z,35.05
2023-05-25T16:25:30.160Z,35.85
2023-05-25T16:27:58.766Z,34.85
2023-05-25T16:30:27.574Z,35.65
2023-05-25T16:32:57.013Z,36.10
2023-05-25T16:35:26.997Z,36.34
2023-05-25T16:37:57.110Z,36.52
2023-05-25T16:40:26.201Z,36.04
2023-05-25T16:42:54.766Z,36.88
2023-05-25T16:45:24.288Z,37.03
2023-05-25T16:47:53.202Z,37.08
2023-05-25T16:50:22.287Z,37.33
2023-05-25T16:52:58.450Z,37.91
2023-05-25T16:55:27.645Z,37.50
2023-05-25T16:57:56.124Z,38.17
2023-05-25T17:00:24.988Z,38.34
2023-05-25T17:02:53.870Z,38.13
2023-05-25T17:05:22.734Z,38.66
2023-05-25T17:07:51.875Z,38.25
2023-05-25T17:10:22.611Z,38.75
2023-05-25T17:12:52.221Z,38.20
2023-05-25T17:15:21.074Z,38.42
2023-05-25T17:17:51.587Z,38.66
2023-05-25T17:20:20.415Z,38.91
2023-05-25T17:22:50.558Z,38.97
2023-05-25T17:25:19.432Z,38.61
2023-05-25T17:27:50.092Z,38.83
2023-05-25T17:30:19.917Z,38.75
2023-05-25T17:32:49.146Z,38.68
2023-05-25T17:35:17.904Z,38.66
2023-05-25T17:37:47.313Z,38.66
2023-05-25T17:40:19.006Z,39.22
2023-05-25T17:42:50.468Z,39.35
2023-05-25T17:45:22.355Z,39.31
2023-05-25T17:47:52.178Z,39.71
2023-05-25T17:50:21.736Z,40.02
2023-05-25T17:52:50.535Z,40.49
2023-05-25T17:55:21.432Z,40.27
2023-05-25T17:57:51.333Z,40.46
2023-05-25T18:00:23.552Z,40.97
2023-05-25T18:02:52.271Z,41.01
2023-05-25T18:05:20.989Z,41.22
2023-05-25T18:07:50.297Z,42.01
2023-05-25T18:10:18.859Z,41.98
2023-05-25T18:12:50.306Z,42.63
2023-05-25T18:15:20.378Z,42.57
2023-05-25T18:17:48.920Z,43.17
2023-05-25T18:20:17.717Z,43.37
2023-05-25T18:22:46.350Z,43.36
2023-05-25T18:25:14.687Z,43.86
2023-05-25T18:27:43.793Z,44.57
2023-05-25T18:30:13.085Z,44.29
2023-05-25T18:32:43.293Z,44.45
2023-05-25T18:35:12.911Z,45.10
2023-05-25T18:37:41.429Z,44.96
2023-05-25T18:40:13.460Z,45.76
2023-05-25T18:42:42.133Z,46.24
2023-05-25T18:45:11.588Z,45.66
2023-05-25T18:47:40.693Z,46.25
2023-05-25T18:50:12.442Z,46.29
2023-05-25T18:52:42.625Z,46.53
2023-05-25T18:55:11.509Z,46.47
2023-05-25T18:57:40.245Z,46.75
2023-05-25T19:00:11.394Z,47.03
2023-05-25T19:02:43.176Z,47.13
2023-05-25T19:05:15.386Z,46.76
2023-05-25T19:07:58.523Z,46.92
2023-05-25T19:10:29.069Z,47.55
2023-05-25T19:12:58.055Z,47.40
2023-05-25T19:15:26.545Z,48.27
2023-05-25T19:17:55.357Z,48.58
2023-05-25T19:20:28.345Z,48.49
2023-05-25T19:22:57.806Z,48.50
2023-05-25T19:25:26.416Z,48.99
2023-05-25T19:27:55.208Z,49.33
2023-05-25T19:30:24.171Z,49.31
2023-05-25T19:32:54.073Z,49.76
2023-05-25T19:35:23.869Z,49.74
2023-05-25T19:37:53.853Z,50.06
2023-05-25T19:40:22.536Z,50.24
2023-05-25T19:42:51.062Z,50.44
2023-05-25T19:45:19.990Z,50.61
2023-05-25T19:47:48.726Z,50.90
2023-05-25T19:50:18.361Z,50.31
2023-05-25T19:52:46.932Z,51.26
2023-05-25T19:55:16.570Z,50.92
2023-05-25T19:57:45.942Z,51.76
2023-05-25T20:00:25.309Z,51.83
2023-05-25T20:02:55.858Z,52.17
2023-05-25T20:05:24.843Z,52.08
2023-05-25T20:07:53.265Z,52.60
2023-05-25T20:10:23.819Z,52.51
2023-05-25T20:12:52.334Z,52.68
2023-05-25T20:15:21.233Z,52.22
2023-05-25T20:17:50.156Z,52.28
2023-05-25T20:20:18.852Z,52.53
2023-05-25T20:22:47.663Z,52.97
2023-05-25T20:25:16.424Z,53.17
2023-05-25T20:27:46.605Z,53.08
2023-05-25T20:30:17.642Z,53.36
2023-05-25T20:32:46.219Z,53.37
2023-05-25T20:35:15.113Z,53.71
2023-05-25T20:37:44.450Z,53.49
2023-05-25T20:40:12.909Z,53.42
2023-05-25T20:42:41.163Z,53.71
2023-05-25T20:45:12.314Z,53.57
2023-05-25T20:47:41.427Z,53.56
2023-05-25T20:50:10.330Z,53.83
2023-05-25T20:52:39.426Z,54.04
2023-05-25T20:55:08.853Z,54.14
2023-05-25T20:57:37.935Z,54.48
2023-05-25T21:00:07.115Z,54.31
2023-05-25T21:02:36.987Z,54.72
2023-05-25T21:05:06.520Z,54.67
2023-05-25T21:07:35.060Z,55.35
2023-05-25T21:10:04.354Z,55.18
2023-05-25T21:12:33.381Z,55.60
2023-05-25T21:15:01.899Z,55.25
2023-05-25T21:17:30.942Z,56.21
2023-05-25T21:20:01.671Z,55.79
2023-05-25T21:22:30.195Z,55.93
2023-05-25T21:24:59.644Z,56.43
2023-05-25T21:27:29.020Z,56.87
2023-05-25T21:29:57.470Z,56.66
2023-05-25T21:32:25.917Z,56.56
2023-05-25T21:34:55.773Z,56.86
2023-05-25T21:37:26.173Z,57.49
2023-05-25T21:39:55.107Z,57.34
2023-05-25T21:42:24.201Z,57.52
2023-05-25T21:44:52.981Z,57.74
2023-05-25T21:47:21.707Z,57.58
2023-05-25T21:49:51.362Z,57.85
2023-05-25T21:52:20.282Z,57.40
2023-05-25T21:54:49.992Z,57.75
2023-05-25T21:57:19.271Z,58.38
2023-05-25T21:59:47.608Z,58.11
2023-05-25T22:02:15.997Z,58.20
2023-05-25T22:04:45.093Z,58.74
2023-05-25T22:07:13.514Z,58.38
2023-05-25T22:09:41.922Z,58.62
2023-05-25T22:12:13.941Z,58.89
2023-05-25T22:14:42.363Z,58.84
2023-05-25T22:17:10.682Z,58.60
2023-05-25T22:19:39.644Z,58.80
2023-05-25T22:22:08.493Z,58.75
2023-05-25T22:24:37.044Z,58.76
2023-05-25T22:27:06.659Z,59.30
2023-05-25T22:29:37.021Z,59.72
2023-05-25T22:32:06.108Z,59.68
2023-05-25T22:34:35.994Z,59.66
2023-05-25T22:37:06.191Z,59.73
2023-05-25T22:39:34.768Z,59.45
2023-05-25T22:42:04.004Z,59.60
2023-05-25T22:44:32.550Z,60.48
2023-05-25T22:47:02.642Z,60.51
2023-05-25T22:49:31.588Z,60.83
2023-05-25T22:52:01.967Z,60.68
2023-05-25T22:54:30.762Z,60.90
2023-05-25T22:56:59.548Z,60.96
2023-05-25T22:59:27.921Z,60.27
2023-05-25T23:01:56.503Z,61.39
2023-05-25T23:04:27.722Z,60.98
2023-05-25T23:06:56.733Z,61.07
2023-05-25T23:09:25.173Z,61.44
2023-05-25T23:11:54.178Z,61.65
2023-05-25T23:14:22.464Z,61.50
2023-05-25T23:16:51.339Z,61.55
2023-05-25T23:19:19.967Z,61.88
2023-05-25T23:21:50.033Z,62.30
2023-05-25T23:24:19.004Z,62.13
2023-05-25T23:26:48.576Z,62.32
2023-05-25T23:29:17.325Z,62.38
2023-05-25T23:31:46.231Z,61.96
2023-05-25T23:34:14.744Z,61.64
2023-05-25T23:36:43.861Z,62.91
2023-05-25T23:39:14.662Z,62.33
2023-05-25T23:41:42.876Z,62.81
2023-05-25T23:44:12.435Z,62.69
2023-05-25T23:46:40.891Z,62.66
2023-05-25T23:49:11.370Z,62.36
2023-05-25T23:51:39.603Z,62.54
2023-05-25T23:54:08.191Z,62.09
2023-05-25T23:56:39.649Z,62.57
2023-05-25T23:59:09.434Z,62.79
